Time;durP1;ratioP1;P1;durP2;ratioP2;P2;SDS_P1;SDS_P2;PMS_P1;PMS_P2;Temp;Humidity;BMP_temperature;BMP_pressure;BME280_temperature;BME280_humidity;BME280_pressure;Samples;Min_cycle;Max_cycle;Signal;HPM_P1;HPM_P2
2022/09/30 00:00:30;;;;;;;0.00;0.00;;;13.20;98.00;;;;;;4964186;28;20042;-69
2022/09/30 00:03:04;;;;;;;0.00;0.00;;;13.10;98.00;;;;;;4981043;28;20046;-69
2022/09/30 00:09:05;;;;;;;0.00;0.00;;;13.00;98.00;;;;;;4981408;28;20339;-69
2022/09/30 00:11:41;;;;;;;0.00;0.00;;;12.90;98.00;;;;;;4963808;28;20065;-69
2022/09/30 00:17:40;;;;;;;0.00;0.00;;;12.80;98.00;;;;;;4981353;28;20046;-69
2022/09/30 00:20:17;;;;;;;0.00;0.00;;;12.80;98.00;;;;;;4963804;28;20114;-69
2022/09/30 00:22:52;;;;;;;0.00;0.00;;;12.70;98.00;;;;;;4980742;28;20343;-69
2022/09/30 00:28:54;;;;;;;0.00;0.00;;;12.50;98.00;;;;;;4981296;28;20054;-69
2022/09/30 00:31:32;;;;;;;0.00;0.00;;;12.50;98.00;;;;;;4963455;28;20031;-69
2022/09/30 00:37:29;;;;;;;0.00;0.00;;;12.30;98.00;;;;;;4980657;28;20119;-69
2022/09/30 00:40:04;;;;;;;0.00;0.00;;;12.30;98.00;;;;;;4963426;28;20415;-69
2022/09/30 00:42:39;;;;;;;0.00;0.00;;;12.20;98.00;;;;;;4980347;28;20053;-69
2022/09/30 00:45:16;;;;;;;0.00;0.00;;;12.20;98.00;;;;;;4963391;28;20050;-69
2022/09/30 00:48:15;;;;;;;0.00;0.00;;;12.30;98.00;;;;;;4963722;28;20419;-69
2022/09/30 00:50:54;;;;;;;0.00;0.00;;;12.30;98.00;;;;;;4980735;28;20027;-69
2022/09/30 00:53:48;;;;;;;0.00;0.00;;;12.30;98.00;;;;;;4980160;28;20435;-69
2022/09/30 00:56:31;;;;;;;0.00;0.00;;;12.40;98.00;;;;;;4980070;28;20035;-69
2022/09/30 00:59:27;;;;;;;0.00;0.00;;;12.30;98.00;;;;;;4980012;28;20089;-69
2022/09/30 01:02:03;;;;;;;0.00;0.00;;;12.30;98.00;;;;;;4980078;28;20368;-69
2022/09/30 01:08:06;;;;;;;0.00;0.00;;;12.30;98.00;;;;;;4980162;28;20034;-69
2022/09/30 01:10:41;;;;;;;0.00;0.00;;;12.30;98.00;;;;;;4962935;28;20043;-69
2022/09/30 01:13:17;;;;;;;0.00;0.00;;;12.40;98.00;;;;;;4962698;28;20073;-69
2022/09/30 01:19:54;;;;;;;0.00;0.00;;;12.50;98.00;;;;;;4980147;28;20101;-69
2022/09/30 01:23:06;;;;;;;0.00;0.00;;;12.50;98.00;;;;;;4980024;28;20382;-69
2022/09/30 01:29:34;;;;;;;0.00;0.00;;;12.50;98.00;;;;;;4979898;28;20339;-69
2022/09/30 01:32:38;;;;;;;0.00;0.00;;;12.50;98.00;;;;;;4979537;28;20474;-69
2022/09/30 01:35:04;;;;;;;0.00;0.00;;;12.50;98.00;;;;;;4979157;28;20035;-69
2022/09/30 01:38:16;;;;;;;0.00;0.00;;;12.60;98.00;;;;;;4979516;28;20312;-69
2022/09/30 01:41:13;;;;;;;0.00;0.00;;;12.60;98.00;;;;;;4979321;28;20035;-69
2022/09/30 01:44:20;;;;;;;0.00;0.00;;;12.70;98.00;;;;;;4947495;28;20371;-69
2022/09/30 01:47:15;;;;;;;0.00;0.00;;;12.70;98.00;;;;;;4979319;28;20062;-69
2022/09/30 01:50:02;;;;;;;0.00;0.00;;;12.70;98.00;;;;;;4907477;29;20044;-69
2022/09/30 01:53:15;;;;;;;0.00;0.00;;;12.80;98.00;;;;;;4978963;28;20058;-69
2022/09/30 01:59:40;;;;;;;0.00;0.00;;;13.00;98.00;;;;;;4979404;28;20343;-69
2022/09/30 02:02:26;;;;;;;0.00;0.00;;;13.00;98.00;;;;;;4978984;28;20374;-69
2022/09/30 02:08:42;;;;;;;0.00;0.00;;;13.00;98.00;;;;;;4979143;28;20061;-69
2022/09/30 02:11:25;;;;;;;0.00;0.00;;;13.10;98.00;;;;;;4978309;28;20035;-69
2022/09/30 02:17:22;;;;;;;0.00;0.00;;;13.10;98.00;;;;;;4979144;28;20158;-69
2022/09/30 02:20:05;;;;;;;0.00;0.00;;;13.20;98.00;;;;;;4978661;28;20367;-69
2022/09/30 02:22:45;;;;;;;0.00;0.00;;;13.20;98.00;;;;;;4978539;28;20419;-69
2022/09/30 02:28:48;;;;;;;0.00;0.00;;;13.20;98.00;;;;;;4978954;28;20493;-69
2022/09/30 02:31:36;;;;;;;0.00;0.00;;;13.20;98.00;;;;;;4978443;28;20027;-69
2022/09/30 02:37:42;;;;;;;0.00;0.00;;;13.20;98.00;;;;;;4978713;28;20114;-69
2022/09/30 02:41:05;;;;;;;0.00;0.00;;;13.20;98.00;;;;;;4961265;28;20122;-69
2022/09/30 02:43:41;;;;;;;0.00;0.00;;;13.20;98.00;;;;;;4966189;28;20439;-69
2022/09/30 02:46:10;;;;;;;;;;;13.20;98.00;;;;;;4978648;28;20035;-69
2022/09/30 02:48:55;;;;;;;0.00;0.00;;;13.20;98.00;;;;;;4978109;28;19952;-69
2022/09/30 02:54:51;;;;;;;0.00;0.00;;;13.20;98.00;;;;;;4978354;28;20113;-69
2022/09/30 02:57:22;;;;;;;0.00;0.00;;;13.30;98.00;;;;;;4977801;28;20030;-69
2022/09/30 02:59:57;;;;;;;0.00;0.00;;;13.20;98.00;;;;;;4977903;28;20420;-69
2022/09/30 03:02:33;;;;;;;0.00;0.00;;;13.20;98.00;;;;;;4960948;28;20085;-69
2022/09/30 03:08:29;;;;;;;0.00;0.00;;;13.20;98.00;;;;;;4978188;28;20426;-69
2022/09/30 03:11:05;;;;;;;0.00;0.00;;;13.20;98.00;;;;;;4978006;28;20055;-69
2022/09/30 03:13:49;;;;;;;;;;;13.20;98.00;;;;;;4978202;28;20334;-69
2022/09/30 03:16:52;;;;;;;0.00;0.00;;;13.30;98.00;;;;;;4977753;28;20068;-69
2022/09/30 03:19:55;;;;;;;0.00;0.00;;;13.30;98.00;;;;;;4977904;28;20408;-69
2022/09/30 03:23:08;;;;;;;0.00;0.00;;;13.30;98.00;;;;;;4976693;28;20034;-69
2022/09/30 03:29:21;;;;;;;0.00;0.00;;;13.40;98.00;;;;;;4978102;28;20334;-69
2022/09/30 03:32:24;;;;;;;0.00;0.00;;;13.40;98.00;;;;;;4977721;28;20353;-69
2022/09/30 03:39:29;;;;;;;0.00;0.00;;;13.40;98.00;;;;;;4977951;28;20082;-69
2022/09/30 03:43:08;;;;;;;0.20;0.20;;;13.40;98.00;;;;;;4977916;28;20038;-69
2022/09/30 03:50:04;;;;;;;0.00;0.00;;;13.30;98.00;;;;;;4977498;28;19925;-69
2022/09/30 03:53:45;;;;;;;0.00;0.00;;;13.20;98.00;;;;;;4977725;28;20065;-69
2022/09/30 03:56:29;;;;;;;0.00;0.00;;;13.10;98.00;;;;;;4977361;28;20063;-69
2022/09/30 03:59:04;;;;;;;0.00;0.00;;;13.10;98.00;;;;;;4977452;28;20023;-69
2022/09/30 04:01:39;;;;;;;0.00;0.00;;;13.10;98.00;;;;;;4960192;28;20026;-69
2022/09/30 04:04:14;;;;;;;0.00;0.00;;;13.00;98.00;;;;;;4960376;28;20045;-69
2022/09/30 04:06:39;;;;;;;0.00;0.00;;;13.00;98.00;;;;;;4960206;28;20078;-69
2022/09/30 04:09:15;;;;;;;0.00;0.00;;;13.00;98.00;;;;;;4944232;28;20042;-69
2022/09/30 04:11:49;;;;;;;0.00;0.00;;;13.00;98.00;;;;;;4960033;28;20134;-69
2022/09/30 04:17:37;;;;;;;0.00;0.00;;;12.90;98.00;;;;;;4977851;28;20042;-69
2022/09/30 04:20:12;;;;;;;0.00;0.00;;;12.90;98.00;;;;;;4944166;28;20039;-69
2022/09/30 04:22:47;;;;;;;0.10;0.10;;;13.00;98.00;;;;;;4959938;28;20042;-69
2022/09/30 04:28:45;;;;;;;0.30;0.30;;;13.30;98.00;;;;;;4977230;28;20363;-69
2022/09/30 04:31:20;;;;;;;0.20;0.20;;;13.40;98.00;;;;;;4976981;28;20453;-69
2022/09/30 04:33:56;;;;;;;0.00;0.00;;;13.50;98.00;;;;;;4961954;28;20064;-69
2022/09/30 04:36:22;;;;;;;0.00;0.00;;;13.50;98.00;;;;;;4963378;28;20027;-69
2022/09/30 04:38:57;;;;;;;0.00;0.00;;;13.50;98.00;;;;;;4980592;28;20440;-69
2022/09/30 04:41:33;;;;;;;0.00;0.00;;;13.50;98.00;;;;;;4980329;28;20031;-69
2022/09/30 04:47:30;;;;;;;0.00;0.00;;;13.40;98.00;;;;;;4980803;28;20066;-69
2022/09/30 04:50:06;;;;;;;0.00;0.00;;;13.40;98.00;;;;;;4963396;28;20038;-69
2022/09/30 04:52:43;;;;;;;0.00;0.00;;;13.40;98.00;;;;;;4980258;28;20419;-69
2022/09/30 04:55:10;;;;;;;0.00;0.00;;;13.30;98.00;;;;;;4980166;28;20047;-69
2022/09/30 04:57:51;;;;;;;0.00;0.00;;;13.30;98.00;;;;;;4963493;28;20039;-69
2022/09/30 05:00:26;;;;;;;0.00;0.00;;;13.20;98.00;;;;;;4947040;28;20034;-69
2022/09/30 05:03:02;;;;;;;0.00;0.00;;;13.20;98.00;;;;;;4963077;28;20033;-69
2022/09/30 05:08:42;;;;;;;0.00;0.00;;;13.20;98.00;;;;;;4980028;28;19913;-69
2022/09/30 05:11:19;;;;;;;0.00;0.00;;;13.10;98.00;;;;;;4980279;28;20035;-69
2022/09/30 05:13:55;;;;;;;0.00;0.00;;;13.10;98.00;;;;;;4962795;28;20049;-69
2022/09/30 05:16:20;;;;;;;0.10;0.10;;;13.10;98.00;;;;;;4979988;28;20333;-69
2022/09/30 05:18:55;;;;;;;0.00;0.00;;;13.00;98.00;;;;;;4962623;28;20054;-69
2022/09/30 05:21:30;;;;;;;0.10;0.10;;;13.00;98.00;;;;;;4962742;28;20308;-69
2022/09/30 05:27:19;;;;;;;0.00;0.00;;;13.00;98.00;;;;;;4980188;28;20121;-69
2022/09/30 05:29:53;;;;;;;0.00;0.00;;;13.00;98.00;;;;;;4962454;28;20058;-69
2022/09/30 05:32:29;;;;;;;0.00;0.00;;;13.00;98.00;;;;;;4962666;28;20115;-69
2022/09/30 05:38:16;;;;;;;0.00;0.00;;;12.90;98.00;;;;;;4980118;28;20387;-69
2022/09/30 05:40:54;;;;;;;0.03;0.03;;;13.00;98.00;;;;;;4979710;28;20055;-69
2022/09/30 05:43:31;;;;;;;0.00;0.00;;;13.00;98.00;;;;;;4962273;28;20427;-69
2022/09/30 05:49:28;;;;;;;0.00;0.00;;;13.20;98.00;;;;;;4979592;28;20042;-69
2022/09/30 05:52:04;;;;;;;0.00;0.00;;;13.30;98.00;;;;;;4962188;28;20324;-69
2022/09/30 05:58:00;;;;;;;0.00;0.00;;;13.50;98.00;;;;;;4979731;28;20077;-69
2022/09/30 06:00:39;;;;;;;0.00;0.00;;;13.60;98.00;;;;;;4961917;28;20042;-69
2022/09/30 06:03:15;;;;;;;0.00;0.00;;;13.70;98.00;;;;;;4962074;28;20037;-69
2022/09/30 06:09:12;;;;;;;0.00;0.00;;;13.80;98.00;;;;;;4979066;28;20066;-69
2022/09/30 06:11:46;;;;;;;0.00;0.00;;;13.80;98.00;;;;;;4961717;28;20344;-69
2022/09/30 06:17:43;;;;;;;0.00;0.00;;;13.80;98.00;;;;;;4979175;28;20050;-69
2022/09/30 06:20:18;;;;;;;0.00;0.00;;;13.90;98.00;;;;;;4961925;28;20379;-69
2022/09/30 06:22:53;;;;;;;0.00;0.00;;;13.90;98.00;;;;;;4978820;28;20490;-69
2022/09/30 06:28:53;;;;;;;0.00;0.00;;;13.90;98.00;;;;;;4978878;28;20062;-69
2022/09/30 06:31:29;;;;;;;0.00;0.00;;;13.90;98.00;;;;;;4978769;28;20037;-69
2022/09/30 06:34:05;;;;;;;0.00;0.00;;;13.90;98.00;;;;;;4961501;28;20042;-69
2022/09/30 06:36:32;;;;;;;0.00;0.00;;;13.90;98.00;;;;;;4978411;28;20019;-69
2022/09/30 06:39:51;;;;;;;0.00;0.00;;;13.90;98.00;;;;;;4945708;28;20030;-69
2022/09/30 06:42:25;;;;;;;0.00;0.00;;;13.90;98.00;;;;;;4978250;28;20035;-69
2022/09/30 06:48:22;;;;;;;0.00;0.00;;;14.00;98.00;;;;;;4978587;28;20038;-69
2022/09/30 06:50:59;;;;;;;0.00;0.00;;;14.10;98.00;;;;;;4961213;28;20049;-69
2022/09/30 06:53:34;;;;;;;0.00;0.00;;;14.10;98.00;;;;;;4961487;28;20046;-69
2022/09/30 06:59:15;;;;;;;0.00;0.00;;;14.30;98.00;;;;;;4978023;28;20351;-69
2022/09/30 07:01:51;;;;;;;0.00;0.00;;;14.40;98.00;;;;;;4978040;28;20106;-69
2022/09/30 07:07:48;;;;;;;0.00;0.00;;;14.60;98.00;;;;;;4978355;28;20038;-69
2022/09/30 07:10:23;;;;;;;0.00;0.00;;;14.70;98.00;;;;;;4960937;28;20046;-69
2022/09/30 07:13:01;;;;;;;0.00;0.00;;;14.80;98.00;;;;;;4977836;28;20037;-69
2022/09/30 07:18:59;;;;;;;0.00;0.00;;;15.00;98.00;;;;;;4978185;28;20046;-69
2022/09/30 07:21:34;;;;;;;;;;;15.10;98.00;;;;;;4978220;28;20090;-69
2022/09/30 07:24:09;;;;;;;0.00;0.00;;;15.10;98.00;;;;;;4977729;28;19918;-69
2022/09/30 07:26:34;;;;;;;0.03;0.03;;;15.20;98.00;;;;;;4977741;28;20030;-69
2022/09/30 07:29:11;;;;;;;0.00;0.00;;;15.10;98.00;;;;;;4945003;28;20042;-69
2022/09/30 07:31:45;;;;;;;0.00;0.00;;;15.10;98.00;;;;;;4960713;28;20426;-69
2022/09/30 07:37:35;;;;;;;0.00;0.00;;;15.20;98.00;;;;;;4978046;28;20118;-69
2022/09/30 07:40:10;;;;;;;0.10;0.10;;;15.20;98.00;;;;;;4960764;28;20035;-69
2022/09/30 07:42:45;;;;;;;0.05;0.05;;;15.40;98.00;;;;;;4977514;28;20035;-69
2022/09/30 07:48:46;;;;;;;0.00;0.00;;;15.50;98.00;;;;;;4977808;28;20045;-69
2022/09/30 07:51:36;;;;;;;0.00;0.00;;;15.60;98.00;;;;;;4977452;28;20527;-69
2022/09/30 07:57:33;;;;;;;0.00;0.00;;;15.60;98.00;;;;;;4977819;28;20045;-69
2022/09/30 08:00:08;;;;;;;0.00;0.00;;;15.60;98.00;;;;;;4960507;28;20082;-69
2022/09/30 08:02:43;;;;;;;0.00;0.00;;;15.60;98.00;;;;;;4977466;28;20031;-69
2022/09/30 08:08:46;;;;;;;0.03;0.03;;;15.90;98.00;;;;;;4979360;28;20058;-69
2022/09/30 08:11:22;;;;;;;0.80;0.65;;;16.20;98.00;;;;;;4981271;28;20026;-69
2022/09/30 08:17:52;;;;;;;0.00;0.00;;;16.40;98.00;;;;;;4981563;28;20442;-69
2022/09/30 08:20:27;;;;;;;0.00;0.00;;;16.50;98.00;;;;;;4980761;28;20153;-69
2022/09/30 08:23:02;;;;;;;0.00;0.00;;;16.70;98.00;;;;;;4963760;28;20047;-69
2022/09/30 08:29:05;;;;;;;0.00;0.00;;;16.80;98.00;;;;;;4981045;28;20042;-69
2022/09/30 08:31:40;;;;;;;0.00;0.00;;;16.70;98.00;;;;;;4963563;28;20049;-69
2022/09/30 08:37:43;;;;;;;0.00;0.00;;;16.50;98.00;;;;;;4981171;28;20125;-69
2022/09/30 08:40:56;;;;;;;0.00;0.00;;;16.40;98.00;;;;;;4963508;28;20110;-69
2022/09/30 08:46:52;;;;;;;0.00;0.00;;;16.70;97.00;;;;;;4981107;28;20042;-69
2022/09/30 08:49:56;;;;;;;0.00;0.00;;;16.90;96.20;;;;;;4980187;28;20101;-69
2022/09/30 08:52:35;;;;;;;0.00;0.00;;;16.90;96.80;;;;;;4980375;28;20062;-69
2022/09/30 08:58:29;;;;;;;0.00;0.00;;;16.70;95.20;;;;;;4980811;28;20398;-69
2022/09/30 09:01:42;;;;;;;0.00;0.00;;;16.70;94.10;;;;;;4963273;28;20334;-69
2022/09/30 09:04:17;;;;;;;0.00;0.00;;;16.60;94.80;;;;;;4901905;29;20097;-69
2022/09/30 09:10:24;;;;;;;0.00;0.00;;;16.80;94.30;;;;;;4980075;28;20331;-69
2022/09/30 09:13:36;;;;;;;0.30;0.20;;;16.90;93.90;;;;;;4979773;28;20035;-69
2022/09/30 09:19:50;;;;;;;1.45;0.75;;;17.10;94.00;;;;;;4978794;28;20050;-69
2022/09/30 09:22:27;;;;;;;0.00;0.00;;;17.10;94.10;;;;;;4962746;28;20045;-69
2022/09/30 09:29:11;;;;;;;0.55;0.45;;;17.10;94.00;;;;;;4980037;28;20489;-69
2022/09/30 09:31:47;;;;;;;0.10;0.00;;;17.20;94.00;;;;;;4901407;29;20044;-69
2022/09/30 09:47:18;;;;;;;0.00;0.00;;;17.50;96.60;;;;;;4901694;29;20043;-69
2022/09/30 09:50:04;;;;;;;0.00;0.00;;;17.50;98.00;;;;;;4901114;29;20091;-69
2022/09/30 09:53:07;;;;;;;0.00;0.00;;;17.30;98.00;;;;;;4901109;29;20537;-69
2022/09/30 10:06:52;;;;;;;0.10;0.10;;;16.80;98.00;;;;;;4979335;28;20162;-69
2022/09/30 10:09:36;;;;;;;5.18;1.65;;;16.90;98.00;;;;;;4978997;28;20304;-69
2022/09/30 10:12:14;;;;;;;0.35;0.35;;;17.00;98.00;;;;;;4978806;28;20126;-69
2022/09/30 10:18:40;;;;;;;0.00;0.00;;;17.00;98.00;;;;;;4979236;28;20403;-69
2022/09/30 10:21:44;;;;;;;0.05;0.05;;;17.00;98.00;;;;;;4966817;28;20050;-69
2022/09/30 10:28:30;;;;;;;0.00;0.00;;;17.00;98.00;;;;;;4978999;28;20101;-69
2022/09/30 10:31:13;;;;;;;0.00;0.00;;;17.00;98.00;;;;;;4968225;28;20415;-69
2022/09/30 10:37:24;;;;;;;0.00;0.00;;;17.10;98.00;;;;;;4979096;28;20038;-69
2022/09/30 10:40:26;;;;;;;0.00;0.00;;;17.10;98.00;;;;;;4978434;28;20031;-69
2022/09/30 10:43:01;;;;;;;0.00;0.00;;;17.20;97.70;;;;;;4978644;28;20042;-69
2022/09/30 10:49:38;;;;;;;0.00;0.00;;;17.40;96.00;;;;;;4978236;28;20062;-69
2022/09/30 10:52:31;;;;;;;0.00;0.00;;;17.70;94.30;;;;;;4899858;29;20100;-69
2022/09/30 10:58:56;;;;;;;0.00;0.00;;;17.90;94.80;;;;;;4900116;29;20050;-69
2022/09/30 11:01:58;;;;;;;0.00;0.00;;;18.00;96.00;;;;;;4899879;29;20087;-69
2022/09/30 11:18:22;;;;;;;0.00;0.00;;;17.50;98.00;;;;;;4900035;29;20508;-69
2022/09/30 11:21:03;;;;;;;0.00;0.00;;;17.30;98.00;;;;;;4883684;29;20040;-69
2022/09/30 11:27:24;;;;;;;0.10;0.10;;;16.90;98.00;;;;;;4930990;29;20442;-69
2022/09/30 11:30:34;;;;;;;0.00;0.00;;;16.90;98.00;;;;;;4937716;29;20302;-69
2022/09/30 11:33:36;;;;;;;0.00;0.00;;;16.80;98.00;;;;;;4937212;29;20056;-69
2022/09/30 11:36:25;;;;;;;0.00;0.00;;;16.80;98.00;;;;;;4937210;29;20035;-69
2022/09/30 11:39:31;;;;;;;0.00;0.00;;;16.80;98.00;;;;;;4937450;29;20047;-69
2022/09/30 11:42:39;;;;;;;0.00;0.00;;;16.60;98.00;;;;;;4937341;29;20197;-69
2022/09/30 11:49:07;;;;;;;0.00;0.00;;;16.50;98.00;;;;;;4941515;29;20110;-69
2022/09/30 11:52:00;;;;;;;0.10;0.10;;;16.40;98.00;;;;;;4941127;29;20077;-69
2022/09/30 11:58:09;;;;;;;0.05;0.05;;;16.30;98.00;;;;;;4941412;29;20090;-69
2022/09/30 12:01:07;;;;;;;0.08;0.08;;;16.30;98.00;;;;;;4940987;29;20043;-69
2022/09/30 12:04:23;;;;;;;0.00;0.00;;;16.30;98.00;;;;;;4938051;28;20055;-69
2022/09/30 12:07:13;;;;;;;0.00;0.00;;;16.30;98.00;;;;;;4981318;28;20305;-69
2022/09/30 12:10:06;;;;;;;0.05;0.05;;;16.30;98.00;;;;;;4981154;28;20078;-69
2022/09/30 12:12:42;;;;;;;0.00;0.00;;;16.30;98.00;;;;;;4981211;28;20037;-69
2022/09/30 12:22:39;;;;;;;0.10;0.10;;;16.60;98.00;;;;;;4902662;29;20353;-69
2022/09/30 12:25:30;;;;;;;0.00;0.00;;;16.70;98.00;;;;;;4902728;29;20124;-69
2022/09/30 12:32:22;;;;;;;0.00;0.00;;;16.70;98.00;;;;;;4833914;29;20053;-69
2022/09/30 12:38:34;;;;;;;0.00;0.00;;;16.70;98.00;;;;;;4846902;29;20053;-69
2022/09/30 12:47:55;;;;;;;0.00;0.00;;;16.60;98.00;;;;;;4846908;29;20148;-69
2022/09/30 12:50:51;;;;;;;0.00;0.00;;;16.60;98.00;;;;;;4846507;29;20054;-69
2022/09/30 12:53:37;;;;;;;0.00;0.00;;;16.60;98.00;;;;;;4846048;29;20133;-69
2022/09/30 12:56:52;;;;;;;0.00;0.00;;;16.50;98.00;;;;;;4857251;29;20048;-69
2022/09/30 12:59:37;;;;;;;0.00;0.00;;;16.50;98.00;;;;;;4902301;29;20044;-69
2022/09/30 13:02:39;;;;;;;0.00;0.00;;;16.50;98.00;;;;;;4902033;29;20032;-70
2022/09/30 13:09:25;;;;;;;0.10;0.10;;;16.50;98.00;;;;;;4980447;28;20061;-69
2022/09/30 13:12:02;;;;;;;0.00;0.00;;;16.50;98.00;;;;;;4883075;29;20065;-69
2022/09/30 13:14:44;;;;;;;0.00;0.00;;;16.50;98.00;;;;;;4882977;29;20068;-69
2022/09/30 13:17:10;;;;;;;0.05;0.05;;;16.40;98.00;;;;;;4898227;29;20422;-69
2022/09/30 13:19:53;;;;;;;0.03;0.03;;;16.40;98.00;;;;;;4883026;29;20052;-69
2022/09/30 13:22:30;;;;;;;0.00;0.00;;;16.30;98.00;;;;;;4897799;29;20057;-69
2022/09/30 13:28:48;;;;;;;0.00;0.00;;;16.30;98.00;;;;;;4883189;29;20059;-69
2022/09/30 13:31:28;;;;;;;0.05;0.05;;;16.20;98.00;;;;;;4882976;29;20033;-69
2022/09/30 13:37:36;;;;;;;0.00;0.00;;;16.00;98.00;;;;;;4883040;29;20077;-69
2022/09/30 13:40:25;;;;;;;0.20;0.20;;;16.00;98.00;;;;;;4897020;29;20481;-69
2022/09/30 13:43:03;;;;;;;0.00;0.00;;;15.90;98.00;;;;;;4978872;28;20511;-69
2022/09/30 13:49:31;;;;;;;1.10;0.68;;;15.90;98.00;;;;;;4979596;28;20062;-69
2022/09/30 13:52:13;;;;;;;0.00;0.00;;;15.80;98.00;;;;;;4979152;28;20031;-70
2022/09/30 13:58:15;;;;;;;0.05;0.05;;;15.80;98.00;;;;;;4979619;28;20065;-69
2022/09/30 14:01:15;;;;;;;0.00;0.00;;;15.70;98.00;;;;;;4962314;28;20162;-70
2022/09/30 14:07:13;;;;;;;0.00;0.00;;;15.60;98.00;;;;;;4978759;28;20117;-70
2022/09/30 14:10:45;;;;;;;0.00;0.00;;;15.60;98.00;;;;;;4979488;28;20027;-70
2022/09/30 14:17:13;;;;;;;0.00;0.00;;;15.50;98.00;;;;;;4901133;29;20120;-70
2022/09/30 14:21:00;;;;;;;0.30;0.30;;;15.40;98.00;;;;;;4900928;29;20338;-70
2022/09/30 14:28:21;;;;;;;0.00;0.00;;;15.30;98.00;;;;;;4900641;29;20051;-70
2022/09/30 14:31:07;;;;;;;0.00;0.00;;;15.20;98.00;;;;;;4863091;29;20105;-70
2022/09/30 14:34:02;;;;;;;0.00;0.00;;;15.20;98.00;;;;;;4862971;29;20045;-70
2022/09/30 14:36:38;;;;;;;0.00;0.00;;;15.20;98.00;;;;;;4870193;29;20068;-70
2022/09/30 14:39:30;;;;;;;0.00;0.00;;;15.20;98.00;;;;;;4903365;29;20051;-70
2022/09/30 14:42:13;;;;;;;0.00;0.00;;;15.20;98.00;;;;;;4919122;29;20050;-70
2022/09/30 14:48:16;;;;;;;0.00;0.00;;;15.10;98.00;;;;;;4919273;29;20050;-70
2022/09/30 14:51:20;;;;;;;0.35;0.35;;;15.00;98.00;;;;;;4903501;29;20044;-70
2022/09/30 14:53:55;;;;;;;0.10;0.10;;;15.00;98.00;;;;;;4913047;29;20142;-70
2022/09/30 14:56:29;;;;;;;0.00;0.00;;;14.90;98.00;;;;;;4918724;29;20072;-70
2022/09/30 14:59:33;;;;;;;0.00;0.00;;;14.90;98.00;;;;;;4918924;29;20048;-70
2022/09/30 15:02:23;;;;;;;0.00;0.00;;;14.90;98.00;;;;;;4957587;28;20334;-70
2022/09/30 15:08:16;;;;;;;0.10;0.10;;;14.90;98.00;;;;;;4978270;28;20383;-70
2022/09/30 15:10:57;;;;;;;0.00;0.00;;;14.80;98.00;;;;;;4961446;28;20070;-70
2022/09/30 15:13:33;;;;;;;0.03;0.03;;;14.80;98.00;;;;;;4977820;28;20074;-70
2022/09/30 15:19:42;;;;;;;0.20;0.20;;;14.70;98.00;;;;;;4977926;28;20053;-70
2022/09/30 15:22:17;;;;;;;0.00;0.00;;;14.70;98.00;;;;;;4960611;28;20031;-70
2022/09/30 15:27:46;;;;;;;0.00;0.00;;;14.50;98.00;;;;;;4977969;28;20000;-70
2022/09/30 15:30:31;;;;;;;0.00;0.00;;;14.40;98.00;;;;;;4960665;28;20061;-70
2022/09/30 15:33:19;;;;;;;0.00;0.00;;;14.40;98.00;;;;;;4977654;28;20038;-70
2022/09/30 15:43:16;;;;;;;0.00;0.00;;;14.30;98.00;;;;;;4965236;28;20050;-70
2022/09/30 15:49:48;;;;;;;0.00;0.00;;;14.30;98.00;;;;;;4899757;29;20048;-70
2022/09/30 15:52:45;;;;;;;0.10;0.10;;;14.20;98.00;;;;;;4899208;29;20056;-70
2022/09/30 15:59:13;;;;;;;0.00;0.00;;;14.00;98.00;;;;;;4899664;29;20445;-70
2022/09/30 16:01:57;;;;;;;0.05;0.05;;;14.00;98.00;;;;;;4883378;29;20040;-70
2022/09/30 16:07:53;;;;;;;0.00;0.00;;;13.90;98.00;;;;;;4921171;28;20061;-70
2022/09/30 16:10:29;;;;;;;0.10;0.10;;;13.80;98.00;;;;;;4960497;28;20042;-70
2022/09/30 16:13:05;;;;;;;0.00;0.00;;;13.70;98.00;;;;;;4960422;28;20038;-70
2022/09/30 16:19:03;;;;;;;0.00;0.00;;;13.60;98.00;;;;;;4977557;28;20062;-70
2022/09/30 16:21:43;;;;;;;0.00;0.00;;;13.70;98.00;;;;;;4977685;28;20423;-70
2022/09/30 16:27:40;;;;;;;0.05;0.05;;;13.80;98.00;;;;;;4977529;28;20125;-70
2022/09/30 16:30:17;;;;;;;0.00;0.00;;;13.80;98.00;;;;;;4962560;28;20027;-70
2022/09/30 16:32:57;;;;;;;0.00;0.00;;;13.80;98.00;;;;;;4980716;28;20130;-70
2022/09/30 16:38:54;;;;;;;0.00;0.00;;;13.80;98.00;;;;;;4981017;28;20436;-70
2022/09/30 16:41:28;;;;;;;0.00;0.00;;;13.70;98.00;;;;;;4980605;28;20077;-70
2022/09/30 16:47:19;;;;;;;0.35;0.35;;;13.70;98.00;;;;;;4980924;28;20118;-70
2022/09/30 16:49:58;;;;;;;0.00;0.00;;;13.60;98.00;;;;;;4963911;28;20039;-70
2022/09/30 16:52:33;;;;;;;0.00;0.00;;;13.70;98.00;;;;;;4963413;28;20494;-70
2022/09/30 16:58:20;;;;;;;0.00;0.00;;;13.70;98.00;;;;;;4980599;28;20482;-70
2022/09/30 17:00:56;;;;;;;0.00;0.00;;;13.80;98.00;;;;;;4963279;28;20118;-70
2022/09/30 17:03:48;;;;;;;0.00;0.00;;;13.80;98.00;;;;;;4980351;28;20042;-70
2022/09/30 17:06:17;;;;;;;0.00;0.00;;;13.80;98.00;;;;;;4980157;28;20094;-70
2022/09/30 17:08:52;;;;;;;0.00;0.00;;;13.80;98.00;;;;;;4980194;28;20034;-70
2022/09/30 17:11:31;;;;;;;0.00;0.00;;;13.70;98.00;;;;;;4963205;28;20157;-70
2022/09/30 17:17:19;;;;;;;0.00;0.00;;;13.70;98.00;;;;;;4980427;28;20486;-70
2022/09/30 17:20:03;;;;;;;0.00;0.00;;;13.70;98.00;;;;;;4962924;28;20031;-70
2022/09/30 17:22:38;;;;;;;0.00;0.00;;;13.80;98.00;;;;;;4979776;28;20046;-70
2022/09/30 17:28:41;;;;;;;0.00;0.00;;;13.80;98.00;;;;;;4980062;28;20444;-70
2022/09/30 17:31:16;;;;;;;0.00;0.00;;;13.80;98.00;;;;;;4979607;28;20031;-70
2022/09/30 17:33:52;;;;;;;0.15;0.13;;;13.90;98.00;;;;;;4962751;28;20051;-70
2022/09/30 17:36:17;;;;;;;0.00;0.00;;;13.80;98.00;;;;;;4962564;28;20449;-70
2022/09/30 17:48:31;;;;;;;0.00;0.00;;;13.50;98.00;;;;;;4979745;28;20431;-70
2022/09/30 17:51:06;;;;;;;0.00;0.00;;;13.50;98.00;;;;;;4979357;28;20090;-70
2022/09/30 17:53:43;;;;;;;0.00;0.00;;;13.50;98.00;;;;;;4962222;28;20043;-70
2022/09/30 17:56:19;;;;;;;0.00;0.00;;;13.50;98.00;;;;;;4979358;28;20060;-70
2022/09/30 17:58:53;;;;;;;0.00;0.00;;;13.40;98.00;;;;;;4979323;28;20033;-70
2022/09/30 18:01:29;;;;;;;0.00;0.00;;;13.40;98.00;;;;;;4962166;28;20038;-70
2022/09/30 18:07:19;;;;;;;0.00;0.00;;;13.30;98.00;;;;;;4979326;28;20101;-70
2022/09/30 18:10:01;;;;;;;0.00;0.00;;;13.30;98.00;;;;;;4979018;28;20039;-69
2022/09/30 18:12:35;;;;;;;0.00;0.00;;;13.20;98.00;;;;;;4978755;28;20122;-70
2022/09/30 18:18:36;;;;;;;0.00;0.00;;;13.30;98.00;;;;;;4978923;28;20045;-70
2022/09/30 18:21:10;;;;;;;0.00;0.00;;;13.40;98.00;;;;;;4978870;28;20039;-70
2022/09/30 18:23:48;;;;;;;0.00;0.00;;;13.40;98.00;;;;;;4978826;28;20331;-70
2022/09/30 18:26:14;;;;;;;1.27;0.90;;;13.40;98.00;;;;;;4961624;28;20169;-70
2022/09/30 18:28:57;;;;;;;0.25;0.25;;;13.50;98.00;;;;;;4945508;28;20110;-70
2022/09/30 18:31:35;;;;;;;0.00;0.00;;;13.50;98.00;;;;;;4961675;28;20121;-70
2022/09/30 18:37:23;;;;;;;0.00;0.00;;;13.50;98.00;;;;;;4979067;28;20126;-70
2022/09/30 18:40:08;;;;;;;0.00;0.00;;;13.40;98.00;;;;;;4978591;28;20109;-70
2022/09/30 18:42:44;;;;;;;0.00;0.00;;;13.40;98.00;;;;;;4961087;28;20451;-70
2022/09/30 18:48:46;;;;;;;0.00;0.00;;;13.30;98.00;;;;;;4977590;28;20035;-70
2022/09/30 18:51:23;;;;;;;0.00;0.00;;;13.30;98.00;;;;;;4960309;28;20037;-70
2022/09/30 18:57:11;;;;;;;0.00;0.00;;;13.50;98.00;;;;;;4976662;28;20481;-70
2022/09/30 18:59:46;;;;;;;0.00;0.00;;;13.50;98.00;;;;;;4959397;28;20042;-70
2022/09/30 19:02:21;;;;;;;0.00;0.00;;;13.50;98.00;;;;;;4959274;28;20359;-70
2022/09/30 19:04:57;;;;;;;0.00;0.00;;;13.40;98.00;;;;;;4959778;28;20270;-70
2022/09/30 19:07:42;;;;;;;0.00;0.00;;;13.30;98.00;;;;;;4977905;28;20330;-70
2022/09/30 19:10:20;;;;;;;0.00;0.00;;;13.30;98.00;;;;;;4977911;28;20034;-70
2022/09/30 19:12:55;;;;;;;0.00;0.00;;;13.30;98.00;;;;;;4977680;28;20049;-70
2022/09/30 19:19:00;;;;;;;0.00;0.00;;;13.30;98.00;;;;;;4978074;28;20097;-70
2022/09/30 19:21:38;;;;;;;0.00;0.00;;;13.30;98.00;;;;;;4961302;28;20114;-70
2022/09/30 19:27:37;;;;;;;0.55;0.55;;;13.30;98.00;;;;;;4978169;28;20081;-70
2022/09/30 19:30:13;;;;;;;0.00;0.00;;;13.30;98.00;;;;;;4978181;28;20446;-70
2022/09/30 19:32:55;;;;;;;0.00;0.00;;;13.20;98.00;;;;;;4959663;28;20567;-70
2022/09/30 19:38:58;;;;;;;0.00;0.00;;;13.10;98.00;;;;;;4975931;28;20065;-70
2022/09/30 19:41:45;;;;;;;0.00;0.00;;;13.10;98.00;;;;;;4960816;28;20038;-70
2022/09/30 19:47:46;;;;;;;0.00;0.00;;;13.30;98.00;;;;;;4977942;28;20493;-70
2022/09/30 19:50:21;;;;;;;0.00;0.00;;;13.30;98.00;;;;;;4960515;28;20042;-70
2022/09/30 19:52:57;;;;;;;0.00;0.00;;;13.50;98.00;;;;;;4960463;28;20460;-70
2022/09/30 19:59:00;;;;;;;0.00;0.00;;;13.80;98.00;;;;;;4977713;28;20367;-70
2022/09/30 20:01:35;;;;;;;0.00;0.00;;;13.90;98.00;;;;;;4977381;28;20042;-70
2022/09/30 20:07:22;;;;;;;0.00;0.00;;;14.00;98.00;;;;;;4981630;28;20045;-70
2022/09/30 20:09:57;;;;;;;0.00;0.00;;;14.00;98.00;;;;;;4964201;28;20027;-70
2022/09/30 20:12:32;;;;;;;0.00;0.00;;;14.00;98.00;;;;;;4964120;28;20066;-70
2022/09/30 20:18:29;;;;;;;0.00;0.00;;;13.70;98.00;;;;;;4981275;28;20049;-70